sensor_id;sensor_type;location;lat;lon;timestamp;temperature;humidity
27619;DHT22;15039;50.830;4.730;2023-08-31T00:01:31;12.70;99.90
27619;DHT22;15039;50.830;4.730;2023-08-31T00:03:59;12.80;99.90
27619;DHT22;15039;50.830;4.730;2023-08-31T00:06:34;12.80;99.90
27619;DHT22;15039;50.830;4.730;2023-08-31T00:09:01;12.70;99.90
27619;DHT22;15039;50.830;4.730;2023-08-31T00:11:56;12.70;99.90
27619;DHT22;15039;50.830;4.730;2023-08-31T00:14:58;12.80;99.90
27619;DHT22;15039;50.830;4.730;2023-08-31T00:17:29;12.80;99.90
27619;DHT22;15039;50.830;4.730;2023-08-31T00:19:58;12.70;99.90
27619;DHT22;15039;50.830;4.730;2023-08-31T00:22:25;12.80;99.90
27619;DHT22;15039;50.830;4.730;2023-08-31T00:24:52;12.80;99.90
27619;DHT22;15039;50.830;4.730;2023-08-31T00:27:21;12.70;99.90
27619;DHT22;15039;50.830;4.730;2023-08-31T00:29:50;12.70;99.90
27619;DHT22;15039;50.830;4.730;2023-08-31T00:32:18;12.70;99.90
27619;DHT22;15039;50.830;4.730;2023-08-31T00:34:49;12.70;99.90
27619;DHT22;15039;50.830;4.730;2023-08-31T00:37:22;12.70;99.90
27619;DHT22;15039;50.830;4.730;2023-08-31T00:39:48;12.70;99.90
27619;DHT22;15039;50.830;4.730;2023-08-31T00:42:17;12.70;99.90
27619;DHT22;15039;50.830;4.730;2023-08-31T00:44:43;12.60;99.90
27619;DHT22;15039;50.830;4.730;2023-08-31T00:47:13;12.60;99.90
27619;DHT22;15039;50.830;4.730;2023-08-31T00:49:40;12.60;99.90
27619;DHT22;15039;50.830;4.730;2023-08-31T00:52:07;12.60;99.90
27619;DHT22;15039;50.830;4.730;2023-08-31T00:54:33;12.60;99.90
27619;DHT22;15039;50.830;4.730;2023-08-31T00:56:59;12.60;99.90
27619;DHT22;15039;50.830;4.730;2023-08-31T00:59:25;12.70;99.90
27619;DHT22;15039;50.830;4.730;2023-08-31T01:04:39;12.60;99.90
27619;DHT22;15039;50.830;4.730;2023-08-31T01:12:46;12.60;99.90
27619;DHT22;15039;50.830;4.730;2023-08-31T01:15:13;12.60;99.90
27619;DHT22;15039;50.830;4.730;2023-08-31T01:17:46;12.60;99.90
27619;DHT22;15039;50.830;4.730;2023-08-31T01:20:16;12.60;99.90
27619;DHT22;15039;50.830;4.730;2023-08-31T01:23:06;12.50;99.90
27619;DHT22;15039;50.830;4.730;2023-08-31T01:25:32;12.50;99.90
27619;DHT22;15039;50.830;4.730;2023-08-31T01:27:59;12.60;99.90
27619;DHT22;15039;50.830;4.730;2023-08-31T01:30:25;12.60;99.90
27619;DHT22;15039;50.830;4.730;2023-08-31T01:32:50;12.70;99.90
27619;DHT22;15039;50.830;4.730;2023-08-31T01:35:17;12.70;99.90
27619;DHT22;15039;50.830;4.730;2023-08-31T01:37:56;12.70;99.90
27619;DHT22;15039;50.830;4.730;2023-08-31T01:40:38;12.60;99.90
27619;DHT22;15039;50.830;4.730;2023-08-31T01:43:07;12.60;99.90
27619;DHT22;15039;50.830;4.730;2023-08-31T01:45:33;12.60;99.90
27619;DHT22;15039;50.830;4.730;2023-08-31T01:48:00;12.60;99.90
27619;DHT22;15039;50.830;4.730;2023-08-31T01:50:26;12.50;99.90
27619;DHT22;15039;50.830;4.730;2023-08-31T01:52:52;12.50;99.90
27619;DHT22;15039;50.830;4.730;2023-08-31T01:55:22;12.60;99.90
27619;DHT22;15039;50.830;4.730;2023-08-31T01:57:48;12.60;99.90
27619;DHT22;15039;50.830;4.730;2023-08-31T02:00:14;12.60;99.90
27619;DHT22;15039;50.830;4.730;2023-08-31T02:02:41;12.60;99.90
27619;DHT22;15039;50.830;4.730;2023-08-31T02:05:08;12.60;99.90
27619;DHT22;15039;50.830;4.730;2023-08-31T02:07:34;12.60;99.90
27619;DHT22;15039;50.830;4.730;2023-08-31T02:09:59;12.60;99.90
27619;DHT22;15039;50.830;4.730;2023-08-31T02:12:25;12.70;99.90
27619;DHT22;15039;50.830;4.730;2023-08-31T02:14:51;12.80;99.90
27619;DHT22;15039;50.830;4.730;2023-08-31T02:17:16;12.70;99.90
27619;DHT22;15039;50.830;4.730;2023-08-31T02:19:42;12.60;99.90
27619;DHT22;15039;50.830;4.730;2023-08-31T02:22:08;12.60;99.90
27619;DHT22;15039;50.830;4.730;2023-08-31T02:24:34;12.60;99.90
27619;DHT22;15039;50.830;4.730;2023-08-31T02:27:00;12.60;99.90
27619;DHT22;15039;50.830;4.730;2023-08-31T02:29:25;12.60;99.90
27619;DHT22;15039;50.830;4.730;2023-08-31T02:31:51;12.60;99.90
27619;DHT22;15039;50.830;4.730;2023-08-31T02:34:17;12.60;99.90
27619;DHT22;15039;50.830;4.730;2023-08-31T02:36:42;12.60;99.90
27619;DHT22;15039;50.830;4.730;2023-08-31T02:39:08;12.50;99.90
27619;DHT22;15039;50.830;4.730;2023-08-31T02:41:34;12.60;99.90
27619;DHT22;15039;50.830;4.730;2023-08-31T02:44:00;12.60;99.90
27619;DHT22;15039;50.830;4.730;2023-08-31T02:46:26;12.60;99.90
27619;DHT22;15039;50.830;4.730;2023-08-31T02:48:52;12.70;99.90
27619;DHT22;15039;50.830;4.730;2023-08-31T02:51:18;12.70;99.90
27619;DHT22;15039;50.830;4.730;2023-08-31T02:53:44;12.60;99.90
27619;DHT22;15039;50.830;4.730;2023-08-31T02:56:09;12.60;99.90
27619;DHT22;15039;50.830;4.730;2023-08-31T02:58:35;12.70;99.90
27619;DHT22;15039;50.830;4.730;2023-08-31T03:01:12;12.60;99.90
27619;DHT22;15039;50.830;4.730;2023-08-31T03:03:38;12.70;99.90
27619;DHT22;15039;50.830;4.730;2023-08-31T03:06:06;12.70;99.90
27619;DHT22;15039;50.830;4.730;2023-08-31T03:08:33;12.70;99.90
27619;DHT22;15039;50.830;4.730;2023-08-31T03:10:58;12.70;99.90
27619;DHT22;15039;50.830;4.730;2023-08-31T03:13:24;12.70;99.90
27619;DHT22;15039;50.830;4.730;2023-08-31T03:15:51;12.60;99.90
27619;DHT22;15039;50.830;4.730;2023-08-31T03:18:17;12.70;99.90
27619;DHT22;15039;50.830;4.730;2023-08-31T03:20:43;12.60;99.90
27619;DHT22;15039;50.830;4.730;2023-08-31T03:23:08;12.60;99.90
27619;DHT22;15039;50.830;4.730;2023-08-31T03:25:35;12.60;99.90
27619;DHT22;15039;50.830;4.730;2023-08-31T03:28:00;12.60;99.90
27619;DHT22;15039;50.830;4.730;2023-08-31T03:30:26;12.60;99.90
27619;DHT22;15039;50.830;4.730;2023-08-31T03:32:52;12.60;99.90
27619;DHT22;15039;50.830;4.730;2023-08-31T03:35:17;12.60;99.90
27619;DHT22;15039;50.830;4.730;2023-08-31T03:37:47;12.60;99.90
27619;DHT22;15039;50.830;4.730;2023-08-31T03:40:13;12.60;99.90
27619;DHT22;15039;50.830;4.730;2023-08-31T03:42:38;12.60;99.90
27619;DHT22;15039;50.830;4.730;2023-08-31T03:45:05;12.80;99.90
27619;DHT22;15039;50.830;4.730;2023-08-31T03:47:32;12.80;99.90
27619;DHT22;15039;50.830;4.730;2023-08-31T03:49:58;12.90;99.90
27619;DHT22;15039;50.830;4.730;2023-08-31T03:52:23;12.90;99.90
27619;DHT22;15039;50.830;4.730;2023-08-31T03:54:50;12.90;99.90
27619;DHT22;15039;50.830;4.730;2023-08-31T03:57:16;12.90;99.90
27619;DHT22;15039;50.830;4.730;2023-08-31T03:59:42;13.00;99.90
27619;DHT22;15039;50.830;4.730;2023-08-31T04:02:08;12.90;99.90
27619;DHT22;15039;50.830;4.730;2023-08-31T04:04:33;12.90;99.90
27619;DHT22;15039;50.830;4.730;2023-08-31T04:06:59;12.90;99.90
27619;DHT22;15039;50.830;4.730;2023-08-31T04:09:25;12.90;99.90
27619;DHT22;15039;50.830;4.730;2023-08-31T04:11:51;13.00;99.90
27619;DHT22;15039;50.830;4.730;2023-08-31T04:14:17;13.00;99.90
27619;DHT22;15039;50.830;4.730;2023-08-31T04:16:44;13.00;99.90
27619;DHT22;15039;50.830;4.730;2023-08-31T04:19:10;13.00;99.90
27619;DHT22;15039;50.830;4.730;2023-08-31T04:21:35;13.00;99.90
27619;DHT22;15039;50.830;4.730;2023-08-31T04:24:03;13.00;99.90
27619;DHT22;15039;50.830;4.730;2023-08-31T04:26:28;13.10;99.90
27619;DHT22;15039;50.830;4.730;2023-08-31T04:28:54;13.00;99.90
27619;DHT22;15039;50.830;4.730;2023-08-31T04:31:20;13.00;99.90
27619;DHT22;15039;50.830;4.730;2023-08-31T04:33:46;13.00;99.90
27619;DHT22;15039;50.830;4.730;2023-08-31T04:36:15;13.00;99.90
27619;DHT22;15039;50.830;4.730;2023-08-31T04:38:41;12.90;99.90
27619;DHT22;15039;50.830;4.730;2023-08-31T04:41:06;12.80;99.90
27619;DHT22;15039;50.830;4.730;2023-08-31T04:43:32;12.80;99.90
27619;DHT22;15039;50.830;4.730;2023-08-31T04:45:58;12.70;99.90
27619;DHT22;15039;50.830;4.730;2023-08-31T04:48:23;12.60;99.90
27619;DHT22;15039;50.830;4.730;2023-08-31T04:50:49;12.60;99.90
27619;DHT22;15039;50.830;4.730;2023-08-31T04:53:15;12.60;99.90
27619;DHT22;15039;50.830;4.730;2023-08-31T04:55:40;12.60;99.90
27619;DHT22;15039;50.830;4.730;2023-08-31T04:58:06;12.60;99.90
27619;DHT22;15039;50.830;4.730;2023-08-31T05:00:32;12.60;99.90
27619;DHT22;15039;50.830;4.730;2023-08-31T05:02:57;12.60;99.90
27619;DHT22;15039;50.830;4.730;2023-08-31T05:05:24;12.60;99.90
27619;DHT22;15039;50.830;4.730;2023-08-31T05:07:52;12.60;99.90
27619;DHT22;15039;50.830;4.730;2023-08-31T05:10:19;12.60;99.90
27619;DHT22;15039;50.830;4.730;2023-08-31T05:12:45;12.50;99.90
27619;DHT22;15039;50.830;4.730;2023-08-31T05:15:11;12.50;99.90
27619;DHT22;15039;50.830;4.730;2023-08-31T05:17:37;12.50;99.90
27619;DHT22;15039;50.830;4.730;2023-08-31T05:20:03;12.50;99.90
27619;DHT22;15039;50.830;4.730;2023-08-31T05:22:30;12.60;99.90
27619;DHT22;15039;50.830;4.730;2023-08-31T05:24:55;12.60;99.90
27619;DHT22;15039;50.830;4.730;2023-08-31T05:27:21;12.60;99.90
27619;DHT22;15039;50.830;4.730;2023-08-31T05:29:47;12.60;99.90
27619;DHT22;15039;50.830;4.730;2023-08-31T05:32:13;12.70;99.90
27619;DHT22;15039;50.830;4.730;2023-08-31T05:34:38;12.70;99.90
27619;DHT22;15039;50.830;4.730;2023-08-31T05:37:05;12.70;99.90
27619;DHT22;15039;50.830;4.730;2023-08-31T05:39:31;12.70;99.90
27619;DHT22;15039;50.830;4.730;2023-08-31T05:41:56;12.70;99.90
27619;DHT22;15039;50.830;4.730;2023-08-31T05:44:22;12.80;99.90
27619;DHT22;15039;50.830;4.730;2023-08-31T05:46:48;12.80;99.90
27619;DHT22;15039;50.830;4.730;2023-08-31T05:49:14;12.90;99.90
27619;DHT22;15039;50.830;4.730;2023-08-31T05:51:40;12.80;99.90
27619;DHT22;15039;50.830;4.730;2023-08-31T05:54:05;12.80;99.90
27619;DHT22;15039;50.830;4.730;2023-08-31T05:56:39;12.90;99.90
27619;DHT22;15039;50.830;4.730;2023-08-31T05:59:07;13.00;99.90
27619;DHT22;15039;50.830;4.730;2023-08-31T06:01:35;13.00;99.90
27619;DHT22;15039;50.830;4.730;2023-08-31T06:04:02;13.10;99.90
27619;DHT22;15039;50.830;4.730;2023-08-31T06:06:29;13.10;99.90
27619;DHT22;15039;50.830;4.730;2023-08-31T06:08:54;13.10;99.90
27619;DHT22;15039;50.830;4.730;2023-08-31T06:11:22;13.20;99.90
27619;DHT22;15039;50.830;4.730;2023-08-31T06:13:48;13.20;99.90
27619;DHT22;15039;50.830;4.730;2023-08-31T06:16:13;13.30;99.90
27619;DHT22;15039;50.830;4.730;2023-08-31T06:18:39;13.40;99.90
27619;DHT22;15039;50.830;4.730;2023-08-31T06:21:05;13.40;99.90
27619;DHT22;15039;50.830;4.730;2023-08-31T06:23:31;13.40;99.90
27619;DHT22;15039;50.830;4.730;2023-08-31T06:25:56;13.40;99.90
27619;DHT22;15039;50.830;4.730;2023-08-31T06:28:24;13.40;99.90
27619;DHT22;15039;50.830;4.730;2023-08-31T06:30:50;13.50;99.90
27619;DHT22;15039;50.830;4.730;2023-08-31T06:33:17;13.50;99.90
27619;DHT22;15039;50.830;4.730;2023-08-31T06:35:46;13.50;99.90
27619;DHT22;15039;50.830;4.730;2023-08-31T06:38:14;13.60;99.90
27619;DHT22;15039;50.830;4.730;2023-08-31T06:40:42;13.60;99.90
27619;DHT22;15039;50.830;4.730;2023-08-31T06:43:10;13.80;99.90
27619;DHT22;15039;50.830;4.730;2023-08-31T06:45:41;13.80;99.90
27619;DHT22;15039;50.830;4.730;2023-08-31T06:48:07;13.80;99.90
27619;DHT22;15039;50.830;4.730;2023-08-31T06:50:34;13.80;99.90
27619;DHT22;15039;50.830;4.730;2023-08-31T06:53:01;13.90;99.90
27619;DHT22;15039;50.830;4.730;2023-08-31T06:55:26;14.00;99.90
27619;DHT22;15039;50.830;4.730;2023-08-31T06:57:52;14.00;99.90
27619;DHT22;15039;50.830;4.730;2023-08-31T07:00:18;14.20;99.90
27619;DHT22;15039;50.830;4.730;2023-08-31T07:02:44;14.20;99.90
27619;DHT22;15039;50.830;4.730;2023-08-31T07:05:11;14.20;99.90
27619;DHT22;15039;50.830;4.730;2023-08-31T07:07:37;14.20;99.90
27619;DHT22;15039;50.830;4.730;2023-08-31T07:10:03;14.30;99.90
27619;DHT22;15039;50.830;4.730;2023-08-31T07:12:31;14.30;99.90
27619;DHT22;15039;50.830;4.730;2023-08-31T07:14:56;14.40;99.90
27619;DHT22;15039;50.830;4.730;2023-08-31T07:17:22;14.50;99.90
27619;DHT22;15039;50.830;4.730;2023-08-31T07:19:48;14.50;99.90
27619;DHT22;15039;50.830;4.730;2023-08-31T07:22:14;14.60;99.90
27619;DHT22;15039;50.830;4.730;2023-08-31T07:24:40;14.70;99.90
27619;DHT22;15039;50.830;4.730;2023-08-31T07:27:05;14.70;99.90
27619;DHT22;15039;50.830;4.730;2023-08-31T07:29:31;14.70;99.90
27619;DHT22;15039;50.830;4.730;2023-08-31T07:31:57;14.80;99.90
27619;DHT22;15039;50.830;4.730;2023-08-31T07:34:24;14.90;99.90
27619;DHT22;15039;50.830;4.730;2023-08-31T07:36:50;14.90;99.90
27619;DHT22;15039;50.830;4.730;2023-08-31T07:39:16;14.90;99.90
27619;DHT22;15039;50.830;4.730;2023-08-31T07:41:44;15.10;99.90
27619;DHT22;15039;50.830;4.730;2023-08-31T07:44:10;15.10;99.90
27619;DHT22;15039;50.830;4.730;2023-08-31T07:46:35;15.10;99.90
27619;DHT22;15039;50.830;4.730;2023-08-31T07:49:02;15.20;99.90
27619;DHT22;15039;50.830;4.730;2023-08-31T07:51:29;15.20;99.90
27619;DHT22;15039;50.830;4.730;2023-08-31T07:53:55;15.20;99.90
27619;DHT22;15039;50.830;4.730;2023-08-31T07:56:22;15.40;99.90
27619;DHT22;15039;50.830;4.730;2023-08-31T07:58:52;15.50;99.90
27619;DHT22;15039;50.830;4.730;2023-08-31T08:01:18;15.60;99.90
27619;DHT22;15039;50.830;4.730;2023-08-31T08:03:44;15.70;99.90
27619;DHT22;15039;50.830;4.730;2023-08-31T08:06:09;15.90;99.90
27619;DHT22;15039;50.830;4.730;2023-08-31T08:08:35;15.80;99.90
27619;DHT22;15039;50.830;4.730;2023-08-31T08:11:04;15.80;99.90
27619;DHT22;15039;50.830;4.730;2023-08-31T08:13:31;15.90;99.90
27619;DHT22;15039;50.830;4.730;2023-08-31T08:15:57;16.00;99.90
27619;DHT22;15039;50.830;4.730;2023-08-31T08:18:22;16.10;99.90
27619;DHT22;15039;50.830;4.730;2023-08-31T08:20:51;16.20;99.90
27619;DHT22;15039;50.830;4.730;2023-08-31T08:23:16;16.20;99.90
27619;DHT22;15039;50.830;4.730;2023-08-31T08:25:43;16.20;99.90
27619;DHT22;15039;50.830;4.730;2023-08-31T08:28:10;16.20;99.90
27619;DHT22;15039;50.830;4.730;2023-08-31T08:30:35;16.30;99.90
27619;DHT22;15039;50.830;4.730;2023-08-31T08:33:01;16.40;99.90
27619;DHT22;15039;50.830;4.730;2023-08-31T08:35:28;16.50;99.90
27619;DHT22;15039;50.830;4.730;2023-08-31T08:37:56;16.70;99.90
27619;DHT22;15039;50.830;4.730;2023-08-31T08:40:22;16.70;99.90
27619;DHT22;15039;50.830;4.730;2023-08-31T08:42:49;16.70;99.90
27619;DHT22;15039;50.830;4.730;2023-08-31T08:45:17;16.70;99.90
27619;DHT22;15039;50.830;4.730;2023-08-31T08:47:45;16.80;99.90
27619;DHT22;15039;50.830;4.730;2023-08-31T08:50:12;16.80;99.90
27619;DHT22;15039;50.830;4.730;2023-08-31T08:52:39;16.90;99.90
27619;DHT22;15039;50.830;4.730;2023-08-31T08:55:07;17.00;99.90
27619;DHT22;15039;50.830;4.730;2023-08-31T08:57:35;17.10;99.90
27619;DHT22;15039;50.830;4.730;2023-08-31T09:00:01;17.10;99.90
27619;DHT22;15039;50.830;4.730;2023-08-31T09:02:28;17.10;99.90
27619;DHT22;15039;50.830;4.730;2023-08-31T09:04:54;17.10;99.90
27619;DHT22;15039;50.830;4.730;2023-08-31T09:07:21;17.20;99.90
27619;DHT22;15039;50.830;4.730;2023-08-31T09:09:54;17.30;99.90
27619;DHT22;15039;50.830;4.730;2023-08-31T09:12:23;17.40;99.90
27619;DHT22;15039;50.830;4.730;2023-08-31T09:15:02;17.30;99.90
27619;DHT22;15039;50.830;4.730;2023-08-31T09:17:41;17.40;99.90
27619;DHT22;15039;50.830;4.730;2023-08-31T09:20:09;17.40;99.90
27619;DHT22;15039;50.830;4.730;2023-08-31T09:22:35;17.50;99.90
27619;DHT22;15039;50.830;4.730;2023-08-31T09:25:02;17.50;99.90
27619;DHT22;15039;50.830;4.730;2023-08-31T09:27:29;17.50;99.90
27619;DHT22;15039;50.830;4.730;2023-08-31T09:29:58;17.50;99.90
27619;DHT22;15039;50.830;4.730;2023-08-31T09:32:23;17.60;99.90
27619;DHT22;15039;50.830;4.730;2023-08-31T09:34:49;17.70;99.90
27619;DHT22;15039;50.830;4.730;2023-08-31T09:37:18;17.90;99.90
27619;DHT22;15039;50.830;4.730;2023-08-31T09:39:44;17.90;99.90
27619;DHT22;15039;50.830;4.730;2023-08-31T09:42:10;18.10;99.90
27619;DHT22;15039;50.830;4.730;2023-08-31T09:44:40;18.20;99.90
27619;DHT22;15039;50.830;4.730;2023-08-31T09:47:08;18.40;99.90
27619;DHT22;15039;50.830;4.730;2023-08-31T09:49:34;18.40;99.90
27619;DHT22;15039;50.830;4.730;2023-08-31T09:52:03;18.60;99.90
27619;DHT22;15039;50.830;4.730;2023-08-31T09:54:31;18.70;99.90
27619;DHT22;15039;50.830;4.730;2023-08-31T09:57:01;18.60;99.90
27619;DHT22;15039;50.830;4.730;2023-08-31T09:59:28;18.50;99.90
27619;DHT22;15039;50.830;4.730;2023-08-31T10:01:55;18.60;99.90
27619;DHT22;15039;50.830;4.730;2023-08-31T10:04:22;18.50;99.90
27619;DHT22;15039;50.830;4.730;2023-08-31T10:06:49;18.60;99.90
27619;DHT22;15039;50.830;4.730;2023-08-31T10:09:15;18.90;99.90
27619;DHT22;15039;50.830;4.730;2023-08-31T10:11:41;19.00;99.90
27619;DHT22;15039;50.830;4.730;2023-08-31T10:14:09;19.20;99.90
27619;DHT22;15039;50.830;4.730;2023-08-31T10:16:43;19.30;99.90
27619;DHT22;15039;50.830;4.730;2023-08-31T10:19:09;19.40;99.90
27619;DHT22;15039;50.830;4.730;2023-08-31T10:21:36;19.60;99.90
27619;DHT22;15039;50.830;4.730;2023-08-31T10:24:03;19.80;99.90
27619;DHT22;15039;50.830;4.730;2023-08-31T10:26:31;20.00;99.90
27619;DHT22;15039;50.830;4.730;2023-08-31T10:28:58;20.10;99.90
27619;DHT22;15039;50.830;4.730;2023-08-31T10:31:28;20.20;99.90
27619;DHT22;15039;50.830;4.730;2023-08-31T10:36:38;20.10;99.90
27619;DHT22;15039;50.830;4.730;2023-08-31T10:39:11;20.00;99.90
27619;DHT22;15039;50.830;4.730;2023-08-31T10:41:37;20.00;99.90
27619;DHT22;15039;50.830;4.730;2023-08-31T10:44:24;19.90;99.90
27619;DHT22;15039;50.830;4.730;2023-08-31T10:46:51;20.00;99.90
27619;DHT22;15039;50.830;4.730;2023-08-31T10:49:20;20.10;99.90
27619;DHT22;15039;50.830;4.730;2023-08-31T10:51:57;20.00;99.90
27619;DHT22;15039;50.830;4.730;2023-08-31T10:54:30;20.00;99.90
27619;DHT22;15039;50.830;4.730;2023-08-31T11:00:01;19.90;99.90
27619;DHT22;15039;50.830;4.730;2023-08-31T11:02:43;20.00;99.90
27619;DHT22;15039;50.830;4.730;2023-08-31T11:05:18;20.20;99.90
27619;DHT22;15039;50.830;4.730;2023-08-31T11:07:49;20.40;99.90
27619;DHT22;15039;50.830;4.730;2023-08-31T11:10:20;20.50;99.90
27619;DHT22;15039;50.830;4.730;2023-08-31T11:12:51;20.50;99.90
27619;DHT22;15039;50.830;4.730;2023-08-31T11:15:21;20.40;99.90
27619;DHT22;15039;50.830;4.730;2023-08-31T11:17:52;20.30;99.90
27619;DHT22;15039;50.830;4.730;2023-08-31T11:20:21;20.10;99.90
27619;DHT22;15039;50.830;4.730;2023-08-31T11:22:48;19.90;99.90
27619;DHT22;15039;50.830;4.730;2023-08-31T11:25:20;19.90;99.90
27619;DHT22;15039;50.830;4.730;2023-08-31T11:27:57;20.00;99.90
27619;DHT22;15039;50.830;4.730;2023-08-31T11:30:27;20.10;99.90
27619;DHT22;15039;50.830;4.730;2023-08-31T11:32:56;20.20;99.90
27619;DHT22;15039;50.830;4.730;2023-08-31T11:35:23;20.30;99.90
27619;DHT22;15039;50.830;4.730;2023-08-31T11:37:51;20.60;99.90
27619;DHT22;15039;50.830;4.730;2023-08-31T11:40:17;20.60;99.90
27619;DHT22;15039;50.830;4.730;2023-08-31T11:42:45;20.60;99.90
27619;DHT22;15039;50.830;4.730;2023-08-31T11:45:13;20.70;99.90
27619;DHT22;15039;50.830;4.730;2023-08-31T11:47:40;20.80;99.90
27619;DHT22;15039;50.830;4.730;2023-08-31T11:50:07;20.70;99.90
27619;DHT22;15039;50.830;4.730;2023-08-31T11:52:34;20.70;99.90
27619;DHT22;15039;50.830;4.730;2023-08-31T11:55:00;20.80;99.90
27619;DHT22;15039;50.830;4.730;2023-08-31T11:57:27;20.80;99.90
27619;DHT22;15039;50.830;4.730;2023-08-31T11:59:54;20.90;99.90
27619;DHT22;15039;50.830;4.730;2023-08-31T12:02:20;21.10;99.90
27619;DHT22;15039;50.830;4.730;2023-08-31T12:04:46;21.20;99.90
27619;DHT22;15039;50.830;4.730;2023-08-31T12:07:21;21.30;99.90
27619;DHT22;15039;50.830;4.730;2023-08-31T12:09:47;21.30;99.90
27619;DHT22;15039;50.830;4.730;2023-08-31T12:12:14;21.40;99.90
27619;DHT22;15039;50.830;4.730;2023-08-31T12:14:41;21.60;99.90
27619;DHT22;15039;50.830;4.730;2023-08-31T12:17:08;21.70;99.90
27619;DHT22;15039;50.830;4.730;2023-08-31T12:19:36;21.90;99.90
27619;DHT22;15039;50.830;4.730;2023-08-31T12:22:02;21.80;99.90
27619;DHT22;15039;50.830;4.730;2023-08-31T12:24:29;21.70;99.90
27619;DHT22;15039;50.830;4.730;2023-08-31T12:26:55;21.50;99.90
27619;DHT22;15039;50.830;4.730;2023-08-31T12:29:21;21.40;99.90
27619;DHT22;15039;50.830;4.730;2023-08-31T12:31:47;21.20;99.90
27619;DHT22;15039;50.830;4.730;2023-08-31T12:34:13;20.90;99.90
27619;DHT22;15039;50.830;4.730;2023-08-31T12:36:40;20.80;99.90
27619;DHT22;15039;50.830;4.730;2023-08-31T12:39:08;20.80;99.90
27619;DHT22;15039;50.830;4.730;2023-08-31T12:41:39;20.50;99.90
27619;DHT22;15039;50.830;4.730;2023-08-31T12:44:05;20.40;99.90
27619;DHT22;15039;50.830;4.730;2023-08-31T12:46:32;20.30;99.90
27619;DHT22;15039;50.830;4.730;2023-08-31T12:49:02;20.30;99.90
27619;DHT22;15039;50.830;4.730;2023-08-31T12:51:31;20.30;99.90
27619;DHT22;15039;50.830;4.730;2023-08-31T12:54:04;20.20;99.90
27619;DHT22;15039;50.830;4.730;2023-08-31T12:56:30;20.30;99.90
27619;DHT22;15039;50.830;4.730;2023-08-31T12:58:55;20.30;99.90
27619;DHT22;15039;50.830;4.730;2023-08-31T13:01:21;20.30;99.90
27619;DHT22;15039;50.830;4.730;2023-08-31T13:03:49;20.30;99.90
27619;DHT22;15039;50.830;4.730;2023-08-31T13:06:17;20.40;99.90
27619;DHT22;15039;50.830;4.730;2023-08-31T13:08:43;20.50;99.90
27619;DHT22;15039;50.830;4.730;2023-08-31T13:11:10;20.60;99.90
27619;DHT22;15039;50.830;4.730;2023-08-31T13:13:37;20.70;99.90
27619;DHT22;15039;50.830;4.730;2023-08-31T13:16:03;20.80;99.90
27619;DHT22;15039;50.830;4.730;2023-08-31T13:18:30;20.90;99.90
27619;DHT22;15039;50.830;4.730;2023-08-31T13:20:56;21.00;99.90
27619;DHT22;15039;50.830;4.730;2023-08-31T13:23:23;21.10;99.90
27619;DHT22;15039;50.830;4.730;2023-08-31T13:25:50;21.20;99.90
27619;DHT22;15039;50.830;4.730;2023-08-31T13:28:16;21.30;99.90
27619;DHT22;15039;50.830;4.730;2023-08-31T13:30:42;21.50;99.90
27619;DHT22;15039;50.830;4.730;2023-08-31T13:33:08;21.80;99.90
27619;DHT22;15039;50.830;4.730;2023-08-31T13:35:34;21.90;99.90
27619;DHT22;15039;50.830;4.730;2023-08-31T13:38:01;22.00;99.90
27619;DHT22;15039;50.830;4.730;2023-08-31T13:40:28;22.10;99.90
27619;DHT22;15039;50.830;4.730;2023-08-31T13:42:58;22.20;99.90
27619;DHT22;15039;50.830;4.730;2023-08-31T13:45:29;22.10;99.90
27619;DHT22;15039;50.830;4.730;2023-08-31T13:47:56;22.00;99.90
27619;DHT22;15039;50.830;4.730;2023-08-31T13:50:21;21.90;99.90
27619;DHT22;15039;50.830;4.730;2023-08-31T13:52:47;21.90;99.90
27619;DHT22;15039;50.830;4.730;2023-08-31T13:55:14;21.90;99.90
27619;DHT22;15039;50.830;4.730;2023-08-31T13:57:41;22.00;99.90
27619;DHT22;15039;50.830;4.730;2023-08-31T14:00:08;22.00;99.90
27619;DHT22;15039;50.830;4.730;2023-08-31T14:02:37;22.00;99.90
27619;DHT22;15039;50.830;4.730;2023-08-31T14:05:06;22.00;99.90
27619;DHT22;15039;50.830;4.730;2023-08-31T14:07:34;21.80;99.90
27619;DHT22;15039;50.830;4.730;2023-08-31T14:10:00;21.60;99.90
27619;DHT22;15039;50.830;4.730;2023-08-31T14:12:26;21.60;99.90
27619;DHT22;15039;50.830;4.730;2023-08-31T14:14:52;21.70;99.90
27619;DHT22;15039;50.830;4.730;2023-08-31T14:17:19;21.70;99.90
27619;DHT22;15039;50.830;4.730;2023-08-31T14:19:46;21.80;99.90
27619;DHT22;15039;50.830;4.730;2023-08-31T14:22:12;21.90;99.90
27619;DHT22;15039;50.830;4.730;2023-08-31T14:24:38;21.80;99.90
27619;DHT22;15039;50.830;4.730;2023-08-31T14:27:06;21.70;99.90
27619;DHT22;15039;50.830;4.730;2023-08-31T14:29:34;21.70;99.90
27619;DHT22;15039;50.830;4.730;2023-08-31T14:32:02;21.60;99.90
27619;DHT22;15039;50.830;4.730;2023-08-31T14:34:28;21.50;99.90
27619;DHT22;15039;50.830;4.730;2023-08-31T14:36:58;21.40;99.90
27619;DHT22;15039;50.830;4.730;2023-08-31T14:39:26;21.40;99.90
27619;DHT22;15039;50.830;4.730;2023-08-31T14:41:56;21.30;99.90
27619;DHT22;15039;50.830;4.730;2023-08-31T14:44:22;21.30;99.90
27619;DHT22;15039;50.830;4.730;2023-08-31T14:46:49;21.20;99.90
27619;DHT22;15039;50.830;4.730;2023-08-31T14:49:15;21.10;99.90
27619;DHT22;15039;50.830;4.730;2023-08-31T14:51:41;20.80;99.90
27619;DHT22;15039;50.830;4.730;2023-08-31T14:54:08;21.00;99.90
27619;DHT22;15039;50.830;4.730;2023-08-31T14:56:34;21.00;99.90
27619;DHT22;15039;50.830;4.730;2023-08-31T14:58:59;20.80;99.90
27619;DHT22;15039;50.830;4.730;2023-08-31T15:01:25;20.90;99.90
27619;DHT22;15039;50.830;4.730;2023-08-31T15:03:51;21.00;99.90
27619;DHT22;15039;50.830;4.730;2023-08-31T15:06:17;21.00;99.90
27619;DHT22;15039;50.830;4.730;2023-08-31T15:08:42;21.00;99.90
27619;DHT22;15039;50.830;4.730;2023-08-31T15:11:09;21.10;99.90
27619;DHT22;15039;50.830;4.730;2023-08-31T15:13:36;21.10;99.90
27619;DHT22;15039;50.830;4.730;2023-08-31T15:16:02;21.10;99.90
27619;DHT22;15039;50.830;4.730;2023-08-31T15:18:29;21.20;99.90
27619;DHT22;15039;50.830;4.730;2023-08-31T15:20:57;21.20;99.90
27619;DHT22;15039;50.830;4.730;2023-08-31T15:23:23;21.30;99.90
27619;DHT22;15039;50.830;4.730;2023-08-31T15:25:50;21.30;99.90
27619;DHT22;15039;50.830;4.730;2023-08-31T15:28:16;21.20;99.90
27619;DHT22;15039;50.830;4.730;2023-08-31T15:30:41;21.10;99.90
27619;DHT22;15039;50.830;4.730;2023-08-31T15:33:07;21.10;99.90
27619;DHT22;15039;50.830;4.730;2023-08-31T15:35:34;21.00;99.90
27619;DHT22;15039;50.830;4.730;2023-08-31T15:38:00;20.80;99.90
27619;DHT22;15039;50.830;4.730;2023-08-31T15:40:26;20.80;99.90
27619;DHT22;15039;50.830;4.730;2023-08-31T15:42:51;20.70;99.90
27619;DHT22;15039;50.830;4.730;2023-08-31T15:45:17;20.70;99.90